Brownsburg, Canada
Current Conditions -  °F | °C
As of 2:00 PM on Monday 20 Oct 2014 (Local Time) from CYMX Reporting Station
Overcast Overcast  
Wind Chill: 40°   Ceiling: 7000
Heat Index: 43°   Visibility: 45mi
Dew Point: 28°   Wind: 5mph
Humidity: 57%   Direction: 210°SSW
Pressure: 29.93"   Gusts: NA
Location:  45.68°N, 74.4°W
Report Text: CYMX 201800Z 21004KT 180V290 45SM OVC070 06/M02 A2993 RMK AC8 SLP140
Loading
Personal Weather Stations






























Interactive Weather Map
Tropical Storm Tracking
New forecast layout! Learn more

10-Day Weather Forecast

Advertisements
Track Severe Weather on mobile